sensor_id;sensor_type;location;lat;lon;timestamp;temperature;humidity
19037;DHT22;9651;49.138;8.900;2024-03-22T00:01:17;8.80;99.90
19037;DHT22;9651;49.138;8.900;2024-03-22T00:05:21;8.70;99.90
19037;DHT22;9651;49.138;8.900;2024-03-22T00:09:23;8.70;99.90
19037;DHT22;9651;49.138;8.900;2024-03-22T00:13:25;8.60;99.90
19037;DHT22;9651;49.138;8.900;2024-03-22T00:17:27;8.60;99.90
19037;DHT22;9651;49.138;8.900;2024-03-22T00:21:32;8.40;99.90
19037;DHT22;9651;49.138;8.900;2024-03-22T00:25:34;8.40;99.90
19037;DHT22;9651;49.138;8.900;2024-03-22T00:29:36;8.30;99.90
19037;DHT22;9651;49.138;8.900;2024-03-22T00:33:38;8.10;99.90
19037;DHT22;9651;49.138;8.900;2024-03-22T00:37:41;8.10;99.90
19037;DHT22;9651;49.138;8.900;2024-03-22T00:41:43;8.10;99.90
19037;DHT22;9651;49.138;8.900;2024-03-22T00:45:44;8.10;99.90
19037;DHT22;9651;49.138;8.900;2024-03-22T00:49:46;8.20;99.90
19037;DHT22;9651;49.138;8.900;2024-03-22T00:53:48;8.00;99.90
19037;DHT22;9651;49.138;8.900;2024-03-22T00:57:51;8.00;99.90
19037;DHT22;9651;49.138;8.900;2024-03-22T01:01:53;7.90;99.90
19037;DHT22;9651;49.138;8.900;2024-03-22T01:05:54;7.90;99.90
19037;DHT22;9651;49.138;8.900;2024-03-22T01:09:59;7.80;99.90
19037;DHT22;9651;49.138;8.900;2024-03-22T01:14:01;7.80;99.90
19037;DHT22;9651;49.138;8.900;2024-03-22T01:18:03;7.70;99.90
19037;DHT22;9651;49.138;8.900;2024-03-22T01:22:05;7.60;99.90
19037;DHT22;9651;49.138;8.900;2024-03-22T01:26:08;7.60;99.90
19037;DHT22;9651;49.138;8.900;2024-03-22T01:30:10;7.50;99.90
19037;DHT22;9651;49.138;8.900;2024-03-22T01:34:13;7.40;99.90
19037;DHT22;9651;49.138;8.900;2024-03-22T01:38:15;7.40;99.90
19037;DHT22;9651;49.138;8.900;2024-03-22T01:42:18;7.30;99.90
19037;DHT22;9651;49.138;8.900;2024-03-22T01:46:20;7.30;99.90
19037;DHT22;9651;49.138;8.900;2024-03-22T01:50:22;7.40;99.90
19037;DHT22;9651;49.138;8.900;2024-03-22T01:54:24;7.30;99.90
19037;DHT22;9651;49.138;8.900;2024-03-22T01:58:26;7.30;99.90
19037;DHT22;9651;49.138;8.900;2024-03-22T02:02:29;7.30;99.90
19037;DHT22;9651;49.138;8.900;2024-03-22T02:06:31;7.30;99.90
19037;DHT22;9651;49.138;8.900;2024-03-22T02:10:33;7.30;99.90
19037;DHT22;9651;49.138;8.900;2024-03-22T02:14:36;7.30;99.90
19037;DHT22;9651;49.138;8.900;2024-03-22T02:18:38;7.20;99.90
19037;DHT22;9651;49.138;8.900;2024-03-22T02:22:40;7.20;99.90
19037;DHT22;9651;49.138;8.900;2024-03-22T02:26:42;7.20;99.90
19037;DHT22;9651;49.138;8.900;2024-03-22T02:30:44;7.20;99.90
19037;DHT22;9651;49.138;8.900;2024-03-22T02:34:45;7.20;99.90
19037;DHT22;9651;49.138;8.900;2024-03-22T02:38:47;7.20;99.90
19037;DHT22;9651;49.138;8.900;2024-03-22T02:42:50;7.20;99.90
19037;DHT22;9651;49.138;8.900;2024-03-22T02:46:52;7.20;99.90
19037;DHT22;9651;49.138;8.900;2024-03-22T02:50:55;7.20;99.90
19037;DHT22;9651;49.138;8.900;2024-03-22T02:54:57;7.20;99.90
19037;DHT22;9651;49.138;8.900;2024-03-22T02:59:00;7.20;99.90
19037;DHT22;9651;49.138;8.900;2024-03-22T03:03:03;7.30;99.90
19037;DHT22;9651;49.138;8.900;2024-03-22T03:07:05;7.30;99.90
19037;DHT22;9651;49.138;8.900;2024-03-22T03:11:06;7.30;99.90
19037;DHT22;9651;49.138;8.900;2024-03-22T03:15:10;7.30;99.90
19037;DHT22;9651;49.138;8.900;2024-03-22T03:19:11;7.20;99.90
19037;DHT22;9651;49.138;8.900;2024-03-22T03:23:13;7.20;99.90
19037;DHT22;9651;49.138;8.900;2024-03-22T03:27:15;7.20;99.90
19037;DHT22;9651;49.138;8.900;2024-03-22T03:31:18;7.10;99.90
19037;DHT22;9651;49.138;8.900;2024-03-22T03:35:20;7.00;99.90
19037;DHT22;9651;49.138;8.900;2024-03-22T03:39:22;7.00;99.90
19037;DHT22;9651;49.138;8.900;2024-03-22T03:43:24;7.00;99.90
19037;DHT22;9651;49.138;8.900;2024-03-22T03:47:27;7.00;99.90
19037;DHT22;9651;49.138;8.900;2024-03-22T03:51:29;7.10;99.90
19037;DHT22;9651;49.138;8.900;2024-03-22T03:55:30;7.00;99.90
19037;DHT22;9651;49.138;8.900;2024-03-22T03:59:31;6.90;99.90
19037;DHT22;9651;49.138;8.900;2024-03-22T04:03:35;7.00;99.90
19037;DHT22;9651;49.138;8.900;2024-03-22T04:07:37;7.00;99.90
19037;DHT22;9651;49.138;8.900;2024-03-22T04:11:39;6.90;99.90
19037;DHT22;9651;49.138;8.900;2024-03-22T04:15:41;7.00;99.90
19037;DHT22;9651;49.138;8.900;2024-03-22T04:19:44;7.10;99.90
19037;DHT22;9651;49.138;8.900;2024-03-22T04:23:46;7.10;99.90
19037;DHT22;9651;49.138;8.900;2024-03-22T04:27:47;7.10;99.90
19037;DHT22;9651;49.138;8.900;2024-03-22T04:31:49;7.10;99.90
19037;DHT22;9651;49.138;8.900;2024-03-22T04:35:53;7.20;99.90
19037;DHT22;9651;49.138;8.900;2024-03-22T04:39:55;7.10;99.90
19037;DHT22;9651;49.138;8.900;2024-03-22T04:43:56;7.10;99.90
19037;DHT22;9651;49.138;8.900;2024-03-22T04:47:58;7.10;99.90
19037;DHT22;9651;49.138;8.900;2024-03-22T04:52:01;7.10;99.90
19037;DHT22;9651;49.138;8.900;2024-03-22T04:56:04;7.00;99.90
19037;DHT22;9651;49.138;8.900;2024-03-22T05:00:07;7.10;99.90
19037;DHT22;9651;49.138;8.900;2024-03-22T05:04:09;7.00;99.90
19037;DHT22;9651;49.138;8.900;2024-03-22T05:08:12;7.00;99.90
19037;DHT22;9651;49.138;8.900;2024-03-22T05:12:14;7.00;99.90
19037;DHT22;9651;49.138;8.900;2024-03-22T05:16:16;7.00;99.90
19037;DHT22;9651;49.138;8.900;2024-03-22T05:20:18;7.00;99.90
19037;DHT22;9651;49.138;8.900;2024-03-22T05:24:21;7.10;99.90
19037;DHT22;9651;49.138;8.900;2024-03-22T05:28:23;7.10;99.90
19037;DHT22;9651;49.138;8.900;2024-03-22T05:32:25;7.20;99.90
19037;DHT22;9651;49.138;8.900;2024-03-22T05:36:27;7.20;99.90
19037;DHT22;9651;49.138;8.900;2024-03-22T05:40:30;7.20;99.90
19037;DHT22;9651;49.138;8.900;2024-03-22T05:44:32;7.30;99.90
19037;DHT22;9651;49.138;8.900;2024-03-22T05:48:33;7.30;99.90
19037;DHT22;9651;49.138;8.900;2024-03-22T05:52:35;7.40;99.90
19037;DHT22;9651;49.138;8.900;2024-03-22T05:56:38;7.40;99.90
19037;DHT22;9651;49.138;8.900;2024-03-22T06:00:40;7.40;99.90
19037;DHT22;9651;49.138;8.900;2024-03-22T06:04:42;7.40;99.90
19037;DHT22;9651;49.138;8.900;2024-03-22T06:08:44;7.50;99.90
19037;DHT22;9651;49.138;8.900;2024-03-22T06:12:47;7.60;99.90
19037;DHT22;9651;49.138;8.900;2024-03-22T06:16:49;7.70;99.90
19037;DHT22;9651;49.138;8.900;2024-03-22T06:20:51;7.80;99.90
19037;DHT22;9651;49.138;8.900;2024-03-22T06:24:55;7.80;99.90
19037;DHT22;9651;49.138;8.900;2024-03-22T06:28:59;7.90;99.90
19037;DHT22;9651;49.138;8.900;2024-03-22T06:33:00;8.00;99.90
19037;DHT22;9651;49.138;8.900;2024-03-22T06:37:02;8.00;99.90
19037;DHT22;9651;49.138;8.900;2024-03-22T06:41:04;8.10;99.90
19037;DHT22;9651;49.138;8.900;2024-03-22T06:45:08;8.20;99.90
19037;DHT22;9651;49.138;8.900;2024-03-22T06:49:10;8.40;99.90
19037;DHT22;9651;49.138;8.900;2024-03-22T06:53:12;8.60;99.90
19037;DHT22;9651;49.138;8.900;2024-03-22T06:57:14;8.70;99.90
19037;DHT22;9651;49.138;8.900;2024-03-22T07:01:17;8.80;99.90
19037;DHT22;9651;49.138;8.900;2024-03-22T07:05:21;9.20;99.90
19037;DHT22;9651;49.138;8.900;2024-03-22T07:09:23;9.70;99.90
19037;DHT22;9651;49.138;8.900;2024-03-22T07:13:25;10.20;99.90
19037;DHT22;9651;49.138;8.900;2024-03-22T07:17:28;10.80;99.90
19037;DHT22;9651;49.138;8.900;2024-03-22T07:21:30;11.40;99.90
19037;DHT22;9651;49.138;8.900;2024-03-22T07:25:32;11.90;99.90
19037;DHT22;9651;49.138;8.900;2024-03-22T07:29:34;12.40;99.90
19037;DHT22;9651;49.138;8.900;2024-03-22T07:33:37;13.00;99.90
19037;DHT22;9651;49.138;8.900;2024-03-22T07:37:39;13.40;99.90
19037;DHT22;9651;49.138;8.900;2024-03-22T07:41:41;13.60;99.90
19037;DHT22;9651;49.138;8.900;2024-03-22T07:45:43;13.60;99.90
19037;DHT22;9651;49.138;8.900;2024-03-22T07:49:46;13.80;99.90
19037;DHT22;9651;49.138;8.900;2024-03-22T07:53:48;14.40;99.90
19037;DHT22;9651;49.138;8.900;2024-03-22T07:57:52;15.10;99.90
19037;DHT22;9651;49.138;8.900;2024-03-22T08:01:54;15.90;99.90
19037;DHT22;9651;49.138;8.900;2024-03-22T08:05:59;16.70;99.90
19037;DHT22;9651;49.138;8.900;2024-03-22T08:10:01;17.50;99.90
19037;DHT22;9651;49.138;8.900;2024-03-22T08:14:04;18.00;99.90
19037;DHT22;9651;49.138;8.900;2024-03-22T08:18:06;18.10;99.90
19037;DHT22;9651;49.138;8.900;2024-03-22T08:22:10;17.80;99.90
19037;DHT22;9651;49.138;8.900;2024-03-22T08:26:12;17.80;99.90
19037;DHT22;9651;49.138;8.900;2024-03-22T08:30:14;17.90;99.90
19037;DHT22;9651;49.138;8.900;2024-03-22T08:34:16;18.10;99.90
19037;DHT22;9651;49.138;8.900;2024-03-22T08:38:19;18.20;99.90
19037;DHT22;9651;49.138;8.900;2024-03-22T08:42:21;18.40;99.90
19037;DHT22;9651;49.138;8.900;2024-03-22T08:46:23;18.30;99.90
19037;DHT22;9651;49.138;8.900;2024-03-22T08:50:27;18.80;99.90
19037;DHT22;9651;49.138;8.900;2024-03-22T08:54:30;19.90;99.90
19037;DHT22;9651;49.138;8.900;2024-03-22T08:58:32;20.80;99.90
19037;DHT22;9651;49.138;8.900;2024-03-22T09:02:34;21.10;99.90
19037;DHT22;9651;49.138;8.900;2024-03-22T09:06:36;20.80;99.90
19037;DHT22;9651;49.138;8.900;2024-03-22T09:10:39;20.60;99.90
19037;DHT22;9651;49.138;8.900;2024-03-22T09:14:41;20.00;99.90
19037;DHT22;9651;49.138;8.900;2024-03-22T09:18:43;19.80;99.90
19037;DHT22;9651;49.138;8.900;2024-03-22T09:22:45;20.10;99.90
19037;DHT22;9651;49.138;8.900;2024-03-22T09:26:47;20.50;99.90
19037;DHT22;9651;49.138;8.900;2024-03-22T09:30:49;20.60;99.90
19037;DHT22;9651;49.138;8.900;2024-03-22T09:34:51;20.10;99.90
19037;DHT22;9651;49.138;8.900;2024-03-22T09:38:53;19.60;99.90
19037;DHT22;9651;49.138;8.900;2024-03-22T09:42:59;19.80;99.90
19037;DHT22;9651;49.138;8.900;2024-03-22T09:47:03;19.90;99.90
19037;DHT22;9651;49.138;8.900;2024-03-22T09:51:05;19.80;99.90
19037;DHT22;9651;49.138;8.900;2024-03-22T09:55:08;19.70;99.90
19037;DHT22;9651;49.138;8.900;2024-03-22T09:59:11;19.60;99.90
19037;DHT22;9651;49.138;8.900;2024-03-22T10:03:13;19.70;99.90
19037;DHT22;9651;49.138;8.900;2024-03-22T10:07:17;20.10;99.90
19037;DHT22;9651;49.138;8.900;2024-03-22T10:11:19;20.40;99.90
19037;DHT22;9651;49.138;8.900;2024-03-22T10:15:23;20.10;99.90
19037;DHT22;9651;49.138;8.900;2024-03-22T10:19:27;20.20;99.90
19037;DHT22;9651;49.138;8.900;2024-03-22T10:23:29;20.30;99.90
19037;DHT22;9651;49.138;8.900;2024-03-22T10:27:31;21.10;99.90
19037;DHT22;9651;49.138;8.900;2024-03-22T10:31:35;22.10;99.90
19037;DHT22;9651;49.138;8.900;2024-03-22T10:35:37;22.80;99.90
19037;DHT22;9651;49.138;8.900;2024-03-22T10:39:42;23.00;99.90
19037;DHT22;9651;49.138;8.900;2024-03-22T10:43:44;22.70;99.90
19037;DHT22;9651;49.138;8.900;2024-03-22T10:47:50;22.10;99.90
19037;DHT22;9651;49.138;8.900;2024-03-22T10:51:58;21.70;99.90
19037;DHT22;9651;49.138;8.900;2024-03-22T10:56:02;21.00;99.90
19037;DHT22;9651;49.138;8.900;2024-03-22T11:00:09;20.70;99.90
19037;DHT22;9651;49.138;8.900;2024-03-22T11:04:15;20.90;99.90
19037;DHT22;9651;49.138;8.900;2024-03-22T11:08:23;21.20;99.90
19037;DHT22;9651;49.138;8.900;2024-03-22T11:12:26;21.10;99.90
19037;DHT22;9651;49.138;8.900;2024-03-22T11:16:28;21.00;99.90
19037;DHT22;9651;49.138;8.900;2024-03-22T11:20:31;20.70;99.90
19037;DHT22;9651;49.138;8.900;2024-03-22T11:24:37;20.40;99.90
19037;DHT22;9651;49.138;8.900;2024-03-22T11:28:39;20.00;99.90
19037;DHT22;9651;49.138;8.900;2024-03-22T11:32:41;20.20;99.90
19037;DHT22;9651;49.138;8.900;2024-03-22T11:36:47;20.20;99.90
19037;DHT22;9651;49.138;8.900;2024-03-22T11:40:50;20.10;99.90
19037;DHT22;9651;49.138;8.900;2024-03-22T11:44:52;19.90;99.90
19037;DHT22;9651;49.138;8.900;2024-03-22T11:48:54;20.00;99.90
19037;DHT22;9651;49.138;8.900;2024-03-22T11:52:57;20.30;99.90
19037;DHT22;9651;49.138;8.900;2024-03-22T11:56:59;20.20;99.90
19037;DHT22;9651;49.138;8.900;2024-03-22T12:01:02;20.30;99.90
19037;DHT22;9651;49.138;8.900;2024-03-22T12:05:05;20.60;99.90
19037;DHT22;9651;49.138;8.900;2024-03-22T12:09:07;20.40;99.90
19037;DHT22;9651;49.138;8.900;2024-03-22T12:13:11;20.30;99.90
19037;DHT22;9651;49.138;8.900;2024-03-22T12:17:13;20.00;99.90
19037;DHT22;9651;49.138;8.900;2024-03-22T12:21:15;20.00;99.90
19037;DHT22;9651;49.138;8.900;2024-03-22T12:25:18;19.80;99.90
19037;DHT22;9651;49.138;8.900;2024-03-22T12:29:21;20.00;99.90
19037;DHT22;9651;49.138;8.900;2024-03-22T12:33:23;20.00;99.90
19037;DHT22;9651;49.138;8.900;2024-03-22T12:37:26;20.50;99.90
19037;DHT22;9651;49.138;8.900;2024-03-22T12:41:29;20.90;99.90
19037;DHT22;9651;49.138;8.900;2024-03-22T12:45:32;21.20;99.90
19037;DHT22;9651;49.138;8.900;2024-03-22T12:49:34;21.50;99.90
19037;DHT22;9651;49.138;8.900;2024-03-22T12:53:35;21.80;99.90
19037;DHT22;9651;49.138;8.900;2024-03-22T12:57:39;22.10;99.90
19037;DHT22;9651;49.138;8.900;2024-03-22T13:01:40;21.70;99.90
19037;DHT22;9651;49.138;8.900;2024-03-22T13:05:43;21.40;99.90
19037;DHT22;9651;49.138;8.900;2024-03-22T13:09:45;21.50;99.90
19037;DHT22;9651;49.138;8.900;2024-03-22T13:13:48;21.10;99.90
19037;DHT22;9651;49.138;8.900;2024-03-22T13:17:50;20.90;99.90
19037;DHT22;9651;49.138;8.900;2024-03-22T13:21:53;20.70;99.90
19037;DHT22;9651;49.138;8.900;2024-03-22T13:25:55;20.50;99.90
19037;DHT22;9651;49.138;8.900;2024-03-22T13:30:00;20.40;99.90
19037;DHT22;9651;49.138;8.900;2024-03-22T13:34:02;20.40;99.90
19037;DHT22;9651;49.138;8.900;2024-03-22T13:38:05;20.50;99.90
19037;DHT22;9651;49.138;8.900;2024-03-22T13:42:09;20.30;99.90
19037;DHT22;9651;49.138;8.900;2024-03-22T13:46:14;20.20;99.90
19037;DHT22;9651;49.138;8.900;2024-03-22T13:50:18;19.90;99.90
19037;DHT22;9651;49.138;8.900;2024-03-22T13:54:19;19.70;99.90
19037;DHT22;9651;49.138;8.900;2024-03-22T13:58:22;19.60;99.90
19037;DHT22;9651;49.138;8.900;2024-03-22T14:02:25;19.40;99.90
19037;DHT22;9651;49.138;8.900;2024-03-22T14:06:27;19.40;99.90
19037;DHT22;9651;49.138;8.900;2024-03-22T14:10:29;19.40;99.90
19037;DHT22;9651;49.138;8.900;2024-03-22T14:14:31;19.30;99.90
19037;DHT22;9651;49.138;8.900;2024-03-22T14:18:35;19.30;99.90
19037;DHT22;9651;49.138;8.900;2024-03-22T14:22:37;19.30;99.90
19037;DHT22;9651;49.138;8.900;2024-03-22T14:26:39;19.30;99.90
19037;DHT22;9651;49.138;8.900;2024-03-22T14:30:43;19.10;99.90
19037;DHT22;9651;49.138;8.900;2024-03-22T14:34:46;19.00;99.90
19037;DHT22;9651;49.138;8.900;2024-03-22T14:38:48;18.90;99.90
19037;DHT22;9651;49.138;8.900;2024-03-22T14:42:49;18.70;99.90
19037;DHT22;9651;49.138;8.900;2024-03-22T14:46:51;18.50;99.90
19037;DHT22;9651;49.138;8.900;2024-03-22T14:50:56;18.20;99.90
19037;DHT22;9651;49.138;8.900;2024-03-22T14:54:58;18.10;99.90
19037;DHT22;9651;49.138;8.900;2024-03-22T14:59:00;18.10;99.90
19037;DHT22;9651;49.138;8.900;2024-03-22T15:03:03;18.10;99.90
19037;DHT22;9651;49.138;8.900;2024-03-22T15:07:07;18.10;99.90
19037;DHT22;9651;49.138;8.900;2024-03-22T15:11:09;18.20;99.90
19037;DHT22;9651;49.138;8.900;2024-03-22T15:15:10;18.20;99.90
19037;DHT22;9651;49.138;8.900;2024-03-22T15:19:13;18.30;99.90
19037;DHT22;9651;49.138;8.900;2024-03-22T15:23:16;18.40;99.90
19037;DHT22;9651;49.138;8.900;2024-03-22T15:27:18;18.50;99.90
19037;DHT22;9651;49.138;8.900;2024-03-22T15:31:20;18.40;99.90
19037;DHT22;9651;49.138;8.900;2024-03-22T15:35:23;18.40;99.90
19037;DHT22;9651;49.138;8.900;2024-03-22T15:39:26;18.40;99.90
19037;DHT22;9651;49.138;8.900;2024-03-22T15:43:29;18.20;99.90
19037;DHT22;9651;49.138;8.900;2024-03-22T15:47:31;18.20;99.90
19037;DHT22;9651;49.138;8.900;2024-03-22T15:51:33;18.10;99.90
19037;DHT22;9651;49.138;8.900;2024-03-22T15:55:36;18.00;99.90
19037;DHT22;9651;49.138;8.900;2024-03-22T15:59:38;18.00;99.90
19037;DHT22;9651;49.138;8.900;2024-03-22T16:03:40;18.30;99.90
19037;DHT22;9651;49.138;8.900;2024-03-22T16:07:42;18.40;99.90
19037;DHT22;9651;49.138;8.900;2024-03-22T16:11:45;18.60;99.90
19037;DHT22;9651;49.138;8.900;2024-03-22T16:15:47;18.60;99.90
19037;DHT22;9651;49.138;8.900;2024-03-22T16:19:49;18.40;99.90
19037;DHT22;9651;49.138;8.900;2024-03-22T16:23:50;18.20;99.90
19037;DHT22;9651;49.138;8.900;2024-03-22T16:27:53;18.10;99.90
19037;DHT22;9651;49.138;8.900;2024-03-22T16:31:57;18.10;99.90
19037;DHT22;9651;49.138;8.900;2024-03-22T16:35:59;18.00;99.90
19037;DHT22;9651;49.138;8.900;2024-03-22T16:40:01;17.90;99.90
19037;DHT22;9651;49.138;8.900;2024-03-22T16:44:05;17.90;99.90
19037;DHT22;9651;49.138;8.900;2024-03-22T16:48:08;17.90;99.90
19037;DHT22;9651;49.138;8.900;2024-03-22T16:52:10;17.80;99.90
19037;DHT22;9651;49.138;8.900;2024-03-22T16:56:12;17.80;99.90
19037;DHT22;9651;49.138;8.900;2024-03-22T17:00:16;17.50;99.90
19037;DHT22;9651;49.138;8.900;2024-03-22T17:04:18;17.30;99.90
19037;DHT22;9651;49.138;8.900;2024-03-22T17:08:20;17.20;99.90
19037;DHT22;9651;49.138;8.900;2024-03-22T17:12:22;16.90;99.90
19037;DHT22;9651;49.138;8.900;2024-03-22T17:16:25;16.80;99.90
19037;DHT22;9651;49.138;8.900;2024-03-22T17:20:27;16.70;99.90
19037;DHT22;9651;49.138;8.900;2024-03-22T17:24:29;16.60;99.90
19037;DHT22;9651;49.138;8.900;2024-03-22T17:28:31;16.50;99.90
19037;DHT22;9651;49.138;8.900;2024-03-22T17:32:34;16.50;99.90
19037;DHT22;9651;49.138;8.900;2024-03-22T17:36:36;16.40;99.90
19037;DHT22;9651;49.138;8.900;2024-03-22T17:40:39;16.30;99.90
19037;DHT22;9651;49.138;8.900;2024-03-22T17:44:41;16.10;99.90
19037;DHT22;9651;49.138;8.900;2024-03-22T17:48:44;15.80;99.90
19037;DHT22;9651;49.138;8.900;2024-03-22T17:52:46;15.60;99.90
19037;DHT22;9651;49.138;8.900;2024-03-22T17:56:48;15.50;99.90
19037;DHT22;9651;49.138;8.900;2024-03-22T18:00:50;15.30;99.90
19037;DHT22;9651;49.138;8.900;2024-03-22T18:04:53;15.00;99.90
19037;DHT22;9651;49.138;8.900;2024-03-22T18:08:55;14.70;99.90
19037;DHT22;9651;49.138;8.900;2024-03-22T18:12:57;14.50;99.90
19037;DHT22;9651;49.138;8.900;2024-03-22T18:16:59;14.40;99.90
19037;DHT22;9651;49.138;8.900;2024-03-22T18:21:03;14.30;99.90
19037;DHT22;9651;49.138;8.900;2024-03-22T18:25:06;14.20;99.90
19037;DHT22;9651;49.138;8.900;2024-03-22T18:29:08;14.00;99.90
19037;DHT22;9651;49.138;8.900;2024-03-22T18:33:10;13.90;99.90
19037;DHT22;9651;49.138;8.900;2024-03-22T18:37:13;13.80;99.90
19037;DHT22;9651;49.138;8.900;2024-03-22T18:41:15;13.70;99.90
19037;DHT22;9651;49.138;8.900;2024-03-22T18:45:17;13.60;99.90
19037;DHT22;9651;49.138;8.900;2024-03-22T18:49:18;13.50;99.90
19037;DHT22;9651;49.138;8.900;2024-03-22T18:53:22;13.40;99.90
19037;DHT22;9651;49.138;8.900;2024-03-22T18:57:24;13.30;99.90
19037;DHT22;9651;49.138;8.900;2024-03-22T19:01:26;13.10;99.90
19037;DHT22;9651;49.138;8.900;2024-03-22T19:05:28;13.00;99.90
19037;DHT22;9651;49.138;8.900;2024-03-22T19:09:31;12.80;99.90
19037;DHT22;9651;49.138;8.900;2024-03-22T19:13:35;12.70;99.90
19037;DHT22;9651;49.138;8.900;2024-03-22T19:17:37;12.60;99.90
19037;DHT22;9651;49.138;8.900;2024-03-22T19:21:41;12.50;99.90
19037;DHT22;9651;49.138;8.900;2024-03-22T19:25:43;12.50;99.90
19037;DHT22;9651;49.138;8.900;2024-03-22T19:29:45;12.40;99.90
19037;DHT22;9651;49.138;8.900;2024-03-22T19:33:47;12.30;99.90
19037;DHT22;9651;49.138;8.900;2024-03-22T19:37:50;12.20;99.90
19037;DHT22;9651;49.138;8.900;2024-03-22T19:41:53;12.10;99.90
19037;DHT22;9651;49.138;8.900;2024-03-22T19:45:55;12.00;99.90
19037;DHT22;9651;49.138;8.900;2024-03-22T19:50:00;11.90;99.90
19037;DHT22;9651;49.138;8.900;2024-03-22T19:54:02;11.80;99.90
19037;DHT22;9651;49.138;8.900;2024-03-22T19:58:05;11.80;99.90
19037;DHT22;9651;49.138;8.900;2024-03-22T20:02:07;11.80;99.90
19037;DHT22;9651;49.138;8.900;2024-03-22T20:06:09;11.70;99.90
19037;DHT22;9651;49.138;8.900;2024-03-22T20:10:11;11.70;99.90
19037;DHT22;9651;49.138;8.900;2024-03-22T20:14:15;11.70;99.90
19037;DHT22;9651;49.138;8.900;2024-03-22T20:18:17;11.50;99.90
19037;DHT22;9651;49.138;8.900;2024-03-22T20:22:20;11.40;99.90
19037;DHT22;9651;49.138;8.900;2024-03-22T20:26:22;11.30;99.90
19037;DHT22;9651;49.138;8.900;2024-03-22T20:30:25;11.20;99.90
19037;DHT22;9651;49.138;8.900;2024-03-22T20:34:27;11.20;99.90
19037;DHT22;9651;49.138;8.900;2024-03-22T20:38:29;11.10;99.90
